AirNav   Air Wisconsin pilot careers
 
 897 users online  

74CN Camatta Ranch Airstrip
Paso Robles, California, USA

GOING TO PASO ROBLES?


FAA INFORMATION EFFECTIVE 06 DECEMBER 2018

Location

FAA Identifier: 74CN
Lat/Long: 35-28-34.8900N / 120-18-32.4800W
35-28.581500N / 120-18.541333W
35.4763583 / -120.3090222
(estimated)
Elevation: 1358 ft. / 414 m (estimated)
From city: 21 miles SE of PASO ROBLES, CA
Time zone: UTC -8 (UTC -7 during Daylight Saving Time)
Zip code: 93461

Airport Operations

Airport use: Private use. Permission required prior to landing
Activation date: 05/2010
Control tower: no
ARTCC: LOS ANGELES CENTER
FSS: HAWTHORNE FLIGHT SERVICE STATION
Attendance: UNATNDD
Segmented circle: no

Airport Communications

WX ASOS at PRB (19 nm NW): 120.125 (805-239-3593)

Nearby radio navigation aids

VOR radial/distance  VOR name  Freq  Var
AVEr222/19.1AVENAL VOR/DME117.1016E
PRBr111/19.5PASO ROBLES VORTAC114.3016E
MQOr043/25.8MORRO BAY VORTAC112.4016E
FLWr301/31.6FELLOWS VOR/DME117.5016E
GLJr002/(33.1)GUADALUPE VOR111.0016E

Airport Services

Runway Information

Runway 11/29

Dimensions: 2515 x 35 ft. / 767 x 11 m
Surface: asphalt
RUNWAY 11  RUNWAY 29
Traffic pattern: leftleft
Obstructions: none14 ft. bldg, 412 ft. from runway

Airport Ownership and Management from official FAA records

Ownership: Privately-owned
Owner: DR. ROBERT MORRISSON
9110 CAMATTA CREEK RD
SANTA MARGARITA, CA 93453
Phone 805-238-9509
Manager: DR. ROBERT MORRISSON
9110 CAMATTA CREEK RD
SANTA MARGARITA, CA 93453
Phone 805-238-9509
EASEMENT HOLDER.

Additional Remarks

OWNER DESIRES ARPT NOT BE CHARTED.

Instrument Procedures

There are no published instrument procedures at 74CN.

Some nearby airports with instrument procedures:

KPRB - Paso Robles Municipal Airport (19 nm NW)
KSBP - San Luis County Regional Airport (22 nm SW)
KSMX - Santa Maria Public Airport/Capt G Allan Hancock Field (35 nm S)
KVBG - Vandenberg Air Force Base (46 nm S)
KLPC - Lompoc Airport (49 nm S)
 
Loc | Ops | Rwys | IFR | FBO | Links
Com | Nav | Svcs | Stats | Notes


 
Aerial photo
No photo
 
Sectional chart

 
Airport distance calculator
Flying to Camatta Ranch Airstrip? Find the distance to fly.

From to 74CN

Sunrise and sunset
Times for 16-Dec-2018
 Local
(UTC-8)
 Zulu
(UTC)
Morning civil twilight06:3614:36
Sunrise07:0515:05
Sunset16:4900:49
Evening civil twilight17:1701:17

Current date and time
Zulu (UTC)  16-Dec-2018 21:18:50
Local (UTC-8)  16-Dec-2018 13:18:50
 
METAR
KPRB 
20nm NW 
162053Z AUTO 19005KT 10SM CLR 16/10 A3009 RMK AO2 SLP187 T01610100 58016 $
KSBP 
22nm SW 
162056Z 10006KT 10SM CLR 17/10 A3010 RMK AO2 SLP192 T01670100 58010
2CN4 
23nm NE 
SuperAWOS
162055Z AUTO 34004KT 1 1/2SM HZ 19/04 A3010
KL52 
27nm SW 
162055Z AUTO 25005KT 9SM CLR 17/11 A3011 RMK A01
KSMX 
35nm S 
162051Z 12004KT 10SM SCT019 18/12 A3012 RMK AO2 SLP200 T01780117 58007
TAF
KPRB 
20nm NW 
161735Z 1618/1718 30005KT P6SM SKC FM162000 23006KT 6SM BR BKN050 FM170400 VRB03KT P6SM VCSH SCT030 OVC050 FM170700 VRB03KT 3SM -SHRA BR BKN020 OVC060 FM171200 00000KT 1SM BR OVC003
KSBP 
22nm SW 
161735Z 1618/1718 33008KT P6SM SKC FM162000 26008KT P6SM SCT030 BKN050 FM170500 VRB03KT P6SM VCSH BKN025 OVC050 FM170800 VRB03KT P6SM -SHRA BKN020 OVC030 FM171400 00000KT 1SM BR OVC003
NOTAMs
Click for the latest NOTAMs
NOTAMs are issued by the DoD/FAA and will open in a separate window not controlled by AirNav.

 

 
 

Would you like to see your business listed on this page?

 If your business provides an interesting product or service to pilots, flight crews, aircraft, or users of the Camatta Ranch Airstrip, you should consider listing it here.  To start the listing process, click on the button below
 
Add a business
 

Other Pages about Camatta Ranch Airstrip

Update a link
 
Copyright © AirNav, LLC. All rights reserved. Privacy Policy  Contact